Time;durP1;ratioP1;P1;durP2;ratioP2;P2;SDS_P1;SDS_P2;PMS_P1;PMS_P2;Temp;Humidity;BMP_temperature;BMP_pressure;BME280_temperature;BME280_humidity;BME280_pressure;Samples;Min_cycle;Max_cycle;Signal;HPM_P1;HPM_P2
2023/10/13 00:01:16;;;;;;;10.60;4.20;;;;;;;11.15;100.00;101119.55;109469;1244;57168;-81
2023/10/13 00:03:45;;;;;;;10.10;4.50;;;;;;;11.15;100.00;101118.16;109539;1244;62884;-80
2023/10/13 00:06:15;;;;;;;7.30;4.00;;;;;;;11.15;100.00;101116.92;109547;1245;71270;-80
2023/10/13 00:08:45;;;;;;;11.10;4.90;;;;;;;11.16;100.00;101119.16;109570;1243;59445;-80
2023/10/13 00:11:15;;;;;;;7.80;4.40;;;;;;;11.14;100.00;101119.11;109563;1245;63126;-80
2023/10/13 00:13:50;;;;;;;8.50;4.30;;;;;;;11.11;100.00;101121.91;109315;1247;61398;-80
2023/10/13 00:16:28;;;;;;;7.50;4.20;;;;;;;11.10;100.00;101122.52;109458;1243;57250;-80
2023/10/13 00:18:57;;;;;;;6.50;3.90;;;;;;;11.12;100.00;101120.85;109444;1244;62002;-80
2023/10/13 00:21:32;;;;;;;8.70;4.00;;;;;;;11.11;100.00;101119.13;109432;1244;61602;-80
2023/10/13 00:24:01;;;;;;;7.80;3.70;;;;;;;11.11;100.00;101118.98;109372;1243;70299;-80
2023/10/13 00:26:30;;;;;;;9.20;4.00;;;;;;;11.11;100.00;101114.79;109176;1244;63488;-79
2023/10/13 00:29:09;;;;;;;10.40;4.10;;;;;;;11.10;100.00;101122.73;109249;1246;61198;-79
2023/10/13 00:31:42;;;;;;;13.10;4.50;;;;;;;11.07;100.00;101122.21;109209;1243;60354;-80
2023/10/13 00:34:28;;;;;;;10.70;4.40;;;;;;;11.07;100.00;101122.05;109289;1244;73986;-80
2023/10/13 00:39:46;;;;;;;21.30;5.30;;;;;;;11.07;100.00;101121.52;109415;1244;70018;-80
2023/10/13 00:42:19;;;;;;;13.90;4.60;;;;;;;11.05;100.00;101121.32;109310;1244;62767;-80
2023/10/13 00:44:49;;;;;;;12.30;4.20;;;;;;;11.04;100.00;101127.83;109287;1244;62536;-80
2023/10/13 00:50:10;;;;;;;6.70;3.80;;;;;;;11.01;100.00;101126.98;109434;1244;72425;-80
2023/10/13 00:52:41;;;;;;;8.70;4.10;;;;;;;11.01;100.00;101134.63;109450;1244;61209;-80
2023/10/13 00:55:12;;;;;;;10.70;4.50;;;;;;;11.02;100.00;101138.77;109441;1244;69350;-80
2023/10/13 00:57:42;;;;;;;8.30;4.20;;;;;;;10.97;100.00;101142.27;109529;1245;74246;-80
2023/10/13 01:00:24;;;;;;;10.80;4.10;;;;;;;10.90;100.00;101139.57;109536;1245;62323;-80
2023/10/13 01:02:56;;;;;;;7.50;4.60;;;;;;;10.91;100.00;101141.29;109484;1244;57698;-79
2023/10/13 01:05:26;;;;;;;8.30;4.10;;;;;;;10.87;100.00;101140.48;109461;1244;73189;-74
2023/10/13 01:07:55;;;;;;;7.20;4.10;;;;;;;10.88;100.00;101147.57;109363;1244;71750;-79
2023/10/13 01:10:27;;;;;;;9.20;4.30;;;;;;;10.83;100.00;101138.98;109547;1243;70942;-80
2023/10/13 01:12:59;;;;;;;9.10;4.10;;;;;;;10.91;100.00;101150.33;109463;1244;74286;-78
2023/10/13 01:15:30;;;;;;;9.80;4.20;;;;;;;10.91;100.00;101147.23;109450;1245;62857;-79
2023/10/13 01:18:11;;;;;;;10.90;4.00;;;;;;;10.88;100.00;101151.02;109514;1243;61616;-79
2023/10/13 01:20:43;;;;;;;7.30;3.50;;;;;;;10.89;100.00;101149.60;109416;1243;62894;-80
2023/10/13 01:23:19;;;;;;;7.70;4.20;;;;;;;10.86;100.00;101153.56;109500;1244;60861;-80
2023/10/13 01:25:49;;;;;;;9.30;4.70;;;;;;;10.87;100.00;101154.21;109344;1243;59788;-78
2023/10/13 01:28:18;;;;;;;8.80;3.90;;;;;;;10.84;100.00;101160.33;109482;1244;73674;-79
2023/10/13 01:30:49;;;;;;;10.30;4.10;;;;;;;10.82;100.00;101163.23;109189;1243;465605;-79
2023/10/13 01:33:26;;;;;;;7.60;4.00;;;;;;;10.82;100.00;101166.38;109487;1244;60751;-79
2023/10/13 01:35:58;;;;;;;11.10;4.00;;;;;;;10.82;100.00;101165.89;109456;1244;62456;-79
2023/10/13 01:38:27;;;;;;;11.90;4.10;;;;;;;10.82;100.00;101170.09;109372;1244;70543;-74
2023/10/13 01:40:59;;;;;;;9.20;4.30;;;;;;;10.80;100.00;101166.02;109458;1243;59597;-79
2023/10/13 01:43:27;;;;;;;8.80;3.90;;;;;;;10.85;100.00;101163.79;109520;1243;73925;-73
2023/10/13 01:45:56;;;;;;;16.10;8.30;;;;;;;10.90;100.00;101159.82;109518;1244;62594;-79
2023/10/13 01:48:25;;;;;;;7.30;3.90;;;;;;;10.91;100.00;101164.13;109506;1244;57674;-79
2023/10/13 01:50:59;;;;;;;8.60;4.20;;;;;;;10.93;100.00;101165.73;109438;1244;71025;-78
2023/10/13 01:53:28;;;;;;;8.80;4.20;;;;;;;10.90;100.00;101165.87;109567;1243;60745;-75
2023/10/13 01:55:58;;;;;;;9.50;4.70;;;;;;;10.86;100.00;101167.52;109545;1243;59030;-81
2023/10/13 01:58:28;;;;;;;6.90;4.60;;;;;;;10.85;100.00;101172.88;109521;1245;73905;-79
2023/10/13 02:00:59;;;;;;;9.80;4.50;;;;;;;10.82;100.00;101168.84;109384;1244;62319;-80
2023/10/13 02:03:29;;;;;;;11.90;3.90;;;;;;;10.76;100.00;101171.68;109563;1243;57679;-74
2023/10/13 02:06:04;;;;;;;9.90;4.30;;;;;;;10.70;100.00;101166.86;109495;1244;73463;-80
2023/10/13 02:08:36;;;;;;;8.20;3.90;;;;;;;10.65;100.00;101161.45;109550;1244;71763;-79
2023/10/13 02:11:07;;;;;;;8.00;5.00;;;;;;;10.65;100.00;101159.86;109558;1244;70131;-80
2023/10/13 02:13:48;;;;;;;6.90;4.40;;;;;;;10.66;100.00;101163.79;109444;1243;73191;-78
2023/10/13 02:16:18;;;;;;;9.60;4.00;;;;;;;10.66;100.00;101168.17;109396;1245;57621;-79
2023/10/13 02:18:52;;;;;;;7.10;4.80;;;;;;;10.61;100.00;101168.67;109274;1244;60209;-81
2023/10/13 02:21:20;;;;;;;;;;;;;;;10.55;100.00;101166.27;109461;1244;73617;-78
2023/10/13 02:24:05;;;;;;;9.70;4.30;;;;;;;10.48;100.00;101158.71;109429;1244;61891;-79
2023/10/13 02:26:38;;;;;;;12.10;4.50;;;;;;;10.44;100.00;101155.16;109370;1244;59789;-78
2023/10/13 02:29:07;;;;;;;8.70;4.30;;;;;;;10.41;100.00;101159.73;109313;1244;72842;-79
2023/10/13 02:31:38;;;;;;;14.70;4.60;;;;;;;10.41;100.00;101175.36;109439;1246;57877;-78
2023/10/13 02:34:07;;;;;;;7.10;4.00;;;;;;;10.36;100.00;101179.15;109359;1244;57268;-79
2023/10/13 02:36:37;;;;;;;6.90;4.10;;;;;;;10.31;100.00;101185.39;109295;1244;62255;-78
2023/10/13 02:39:09;;;;;;;7.60;4.10;;;;;;;10.30;100.00;101185.27;109297;1244;60722;-79
2023/10/13 02:41:37;;;;;;;7.40;4.10;;;;;;;10.30;100.00;101186.83;109246;1244;69601;-78
2023/10/13 02:44:11;;;;;;;6.70;3.90;;;;;;;10.29;100.00;101192.32;109228;1244;62843;-78
2023/10/13 02:46:40;;;;;;;11.10;4.70;;;;;;;10.27;100.00;101191.75;109423;1245;57184;-78
2023/10/13 02:49:10;;;;;;;8.70;4.20;;;;;;;10.25;100.00;101194.84;109428;1244;57247;-79
2023/10/13 02:51:43;;;;;;;10.70;4.90;;;;;;;10.20;100.00;101198.08;109429;1244;73312;-79
2023/10/13 02:54:15;;;;;;;7.40;4.10;;;;;;;10.13;100.00;101202.73;109426;1244;72360;-80
2023/10/13 02:56:49;;;;;;;8.30;4.40;;;;;;;10.16;100.00;101206.70;109369;1244;70163;-80
2023/10/13 02:59:28;;;;;;;10.20;4.90;;;;;;;10.15;100.00;101209.19;109388;1244;72301;-80
2023/10/13 03:04:59;;;;;;;8.80;4.80;;;;;;;10.15;100.00;101219.11;109296;1244;60148;-79
2023/10/13 03:07:29;;;;;;;11.30;4.90;;;;;;;10.06;100.00;101222.27;109233;1251;62976;-77
2023/10/13 03:10:09;;;;;;;10.10;5.70;;;;;;;9.99;100.00;101229.83;109306;1244;69796;-80
2023/10/13 03:12:40;;;;;;;11.40;6.00;;;;;;;9.95;100.00;101230.79;109405;1244;69451;-80
2023/10/13 03:15:13;;;;;;;9.50;4.20;;;;;;;9.94;100.00;101227.17;109361;1244;65154;-79
2023/10/13 03:17:45;;;;;;;6.70;4.30;;;;;;;9.93;100.00;101223.94;109518;1244;57701;-79
2023/10/13 03:20:30;;;;;;;8.90;4.70;;;;;;;9.93;100.00;101218.92;109459;1243;60162;-79
2023/10/13 03:22:59;;;;;;;6.20;4.30;;;;;;;9.98;100.00;101212.89;109458;1243;74099;-78
2023/10/13 03:25:36;;;;;;;11.20;5.40;;;;;;;10.03;100.00;101211.82;109421;1244;61874;-79
2023/10/13 03:28:07;;;;;;;10.00;5.60;;;;;;;10.07;100.00;101217.52;109478;1243;70497;-80
2023/10/13 03:30:38;;;;;;;12.40;5.30;;;;;;;10.08;100.00;101214.30;109556;1245;63997;-79
2023/10/13 03:33:12;;;;;;;15.60;6.50;;;;;;;10.12;100.00;101211.30;109549;1245;57609;-78
2023/10/13 03:35:43;;;;;;;14.70;6.00;;;;;;;10.22;100.00;101212.57;109659;1242;60271;-78
2023/10/13 03:38:18;;;;;;;14.30;6.20;;;;;;;10.30;100.00;101217.98;109565;1244;62599;-79
2023/10/13 03:41:07;;;;;;;12.70;6.20;;;;;;;10.37;100.00;101224.36;109689;1243;71429;-79
2023/10/13 03:43:52;;;;;;;12.50;5.60;;;;;;;10.42;100.00;101225.98;109466;1244;70284;-78
2023/10/13 03:46:21;;;;;;;12.60;6.20;;;;;;;10.41;100.00;101235.64;109650;1243;74398;-78
2023/10/13 03:49:01;;;;;;;12.90;6.90;;;;;;;10.42;100.00;101225.48;109570;1243;63941;-78
2023/10/13 03:51:33;;;;;;;10.60;5.60;;;;;;;10.44;100.00;101226.71;109583;1244;57759;-77
2023/10/13 03:54:07;;;;;;;18.60;11.20;;;;;;;10.49;100.00;101230.07;109409;1242;62942;-78
2023/10/13 03:56:39;;;;;;;14.90;6.40;;;;;;;10.51;100.00;101228.39;109393;1243;72075;-77
2023/10/13 04:17:39;;;;;;;16.80;6.50;;;;;;;10.53;100.00;101252.77;109627;1242;64287;-80
2023/10/13 04:33:38;;;;;;;19.20;7.60;;;;;;;10.65;100.00;101293.27;109473;1247;62914;-78
2023/10/13 04:39:09;;;;;;;20.80;10.10;;;;;;;10.66;100.00;101299.33;109628;1243;60496;-80
2023/10/13 04:41:42;;;;;;;17.10;9.40;;;;;;;10.65;100.00;101300.44;109726;1243;73060;-74
2023/10/13 05:46:49;;;;;;;24.60;8.40;;;;;;;11.72;100.00;101329.73;109939;1239;61954;-80
2023/10/13 05:51:57;;;;;;;26.50;9.20;;;;;;;11.84;100.00;101340.92;109849;1239;69662;-79
2023/10/13 06:28:40;;;;;;;20.90;10.00;;;;;;;12.28;100.00;101410.75;109629;1241;64910;-81
2023/10/13 06:31:25;;;;;;;24.30;10.60;;;;;;;12.37;100.00;101407.69;109799;1241;61222;-77
2023/10/13 06:33:55;;;;;;;20.10;10.40;;;;;;;12.45;100.00;101400.67;109724;1239;60425;-77
2023/10/13 06:36:25;;;;;;;23.10;9.00;;;;;;;12.61;100.00;101400.63;109742;1239;74104;-79
2023/10/13 06:39:25;;;;;;;18.70;9.60;;;;;;;12.73;100.00;101397.35;109835;1239;61598;-78
2023/10/13 06:41:45;;;;;;;28.70;9.40;;;;;;;12.77;100.00;101403.52;109835;1241;70254;-80
2023/10/13 06:44:16;;;;;;;33.40;10.70;;;;;;;12.76;100.00;101404.63;109594;1241;74780;-80
2023/10/13 06:46:44;;;;;;;19.80;9.40;;;;;;;12.73;100.00;101402.02;109706;1242;62779;-79
2023/10/13 06:49:15;;;;;;;106.90;68.70;;;;;;;12.79;100.00;101402.35;109829;1241;61554;-80
2023/10/13 06:51:46;;;;;;;45.70;20.90;;;;;;;12.85;100.00;101404.90;109616;1241;73782;-76
2023/10/13 06:54:21;;;;;;;20.00;10.20;;;;;;;12.94;100.00;101406.66;109637;1241;61476;-77
2023/10/13 06:56:53;;;;;;;24.30;11.70;;;;;;;13.11;100.00;101407.89;109831;1239;68858;-79
2023/10/13 06:59:26;;;;;;;27.80;17.20;;;;;;;13.25;100.00;101417.41;109868;1240;72285;-79
2023/10/13 07:02:06;;;;;;;24.30;12.00;;;;;;;13.35;100.00;101424.75;109879;1241;62349;-78
2023/10/13 07:05:07;;;;;;;25.00;13.00;;;;;;;13.53;100.00;101422.57;109936;1240;57232;-79
2023/10/13 07:07:39;;;;;;;41.50;12.30;;;;;;;13.69;100.00;101423.15;109811;1239;73471;-79
2023/10/13 07:10:12;;;;;;;24.10;11.10;;;;;;;13.73;100.00;101428.10;109985;1241;61251;-77
2023/10/13 07:12:44;;;;;;;25.40;11.40;;;;;;;13.91;100.00;101433.23;109900;1240;69619;-79
2023/10/13 07:17:54;;;;;;;25.90;11.60;;;;;;;14.09;100.00;101437.66;109888;1241;63007;-78
2023/10/13 07:20:33;;;;;;;23.90;11.20;;;;;;;14.13;100.00;101437.19;109656;1239;59764;-78
2023/10/13 07:23:05;;;;;;;21.20;10.70;;;;;;;14.15;100.00;101442.64;109925;1239;73325;-77
2023/10/13 07:25:38;;;;;;;21.40;10.50;;;;;;;14.15;100.00;101446.81;109851;1241;61825;-79
2023/10/13 07:28:08;;;;;;;22.90;10.60;;;;;;;14.10;100.00;101448.96;109646;1244;69887;-80
2023/10/13 07:30:49;;;;;;;25.00;10.90;;;;;;;13.96;100.00;101444.77;109783;1240;63391;-78
2023/10/13 07:33:19;;;;;;;26.90;11.10;;;;;;;13.85;100.00;101448.19;109911;1241;57619;-80
2023/10/13 07:36:11;;;;;;;22.60;11.30;;;;;;;14.04;100.00;101453.98;109757;1240;60175;-78
2023/10/13 07:38:42;;;;;;;29.60;12.60;;;;;;;14.02;100.00;101449.88;109642;1240;73150;-79
2023/10/13 07:41:15;;;;;;;25.80;11.40;;;;;;;14.15;100.00;101448.58;109989;1239;62749;-79
2023/10/13 07:43:44;;;;;;;25.50;12.00;;;;;;;14.32;100.00;101450.21;110048;1239;59008;-81
2023/10/13 07:46:14;;;;;;;26.70;11.30;;;;;;;14.40;100.00;101453.00;109990;1239;73619;-78
2023/10/13 07:48:46;;;;;;;21.90;11.20;;;;;;;14.63;100.00;101457.86;109807;1242;57148;-78
2023/10/13 07:51:16;;;;;;;21.30;12.60;;;;;;;14.72;100.00;101459.30;109972;1240;61792;-79
2023/10/13 07:53:49;;;;;;;24.30;11.80;;;;;;;14.81;100.00;101459.60;109733;1242;72883;-78
2023/10/13 07:56:19;;;;;;;26.30;12.20;;;;;;;15.04;100.00;101463.10;109773;1241;61196;-77
2023/10/13 07:59:00;;;;;;;27.30;11.40;;;;;;;15.17;100.00;101466.60;109809;1239;70497;-76
2023/10/13 08:01:34;;;;;;;25.60;11.40;;;;;;;15.28;100.00;101471.02;109811;1241;73724;-77
2023/10/13 08:04:12;;;;;;;26.60;12.20;;;;;;;15.34;100.00;101471.91;109727;1242;57601;-78
2023/10/13 08:06:43;;;;;;;20.80;11.20;;;;;;;15.33;100.00;101471.80;109864;1239;57098;-79
2023/10/13 08:09:30;;;;;;;26.10;12.50;;;;;;;15.31;100.00;101468.62;109560;1241;62125;-76
2023/10/13 08:12:00;;;;;;;28.60;12.50;;;;;;;15.26;100.00;101470.11;109644;1239;61396;-77
2023/10/13 08:14:33;;;;;;;28.30;13.80;;;;;;;15.28;100.00;101473.15;109607;1239;69667;-77
2023/10/13 08:17:10;;;;;;;25.30;15.90;;;;;;;15.27;100.00;101476.36;109605;1242;73798;-77
2023/10/13 08:19:44;;;;;;;31.70;13.70;;;;;;;15.27;100.00;101478.66;109717;1242;61394;-77
2023/10/13 08:30:28;;;;;;;27.90;12.50;;;;;;;15.42;100.00;101488.34;109840;1240;59610;-80
2023/10/13 08:32:58;;;;;;;29.70;12.10;;;;;;;15.50;100.00;101486.06;109841;1239;62223;-78
2023/10/13 08:35:35;;;;;;;26.60;13.20;;;;;;;15.59;100.00;101480.95;109848;1239;57662;-78
2023/10/13 08:38:05;;;;;;;28.60;13.60;;;;;;;15.67;100.00;101482.92;109847;1240;61130;-78
2023/10/13 08:41:57;;;;;;;;;;;;;;;;;;;;;
2023/10/13 08:44:09;;;;;;;34.10;13.00;;;;;;;15.96;100.00;101485.28;109704;1240;61041;-83
2023/10/13 08:46:51;;;;;;;24.80;12.70;;;;;;;16.09;100.00;101485.83;109677;1239;59800;-79
2023/10/13 08:49:23;;;;;;;27.40;13.10;;;;;;;16.11;100.00;101484.89;109634;1240;63429;-78
2023/10/13 08:52:06;;;;;;;25.00;12.80;;;;;;;16.09;100.00;101482.80;109801;1240;57125;-76
2023/10/13 08:54:45;;;;;;;23.50;13.10;;;;;;;16.25;100.00;101485.56;109886;1241;59495;-79
2023/10/13 08:57:32;;;;;;;35.10;12.30;;;;;;;16.45;100.00;101490.86;109772;1240;73283;-77
2023/10/13 09:00:27;;;;;;;37.70;14.10;;;;;;;16.64;100.00;101493.93;109917;1239;71866;-77
2023/10/13 09:03:07;;;;;;;23.50;12.30;;;;;;;16.77;100.00;101487.61;109960;1240;60138;-78
2023/10/13 09:05:41;;;;;;;23.90;12.40;;;;;;;16.91;100.00;101487.98;109860;1240;63257;-78
2023/10/13 09:08:16;;;;;;;26.00;13.40;;;;;;;17.09;100.00;101485.39;109745;1242;61977;-78
2023/10/13 09:11:05;;;;;;;28.90;14.00;;;;;;;17.21;100.00;101488.02;109760;1240;60931;-77
2023/10/13 09:13:46;;;;;;;27.30;13.00;;;;;;;17.38;100.00;101488.97;109952;1240;73025;-78
2023/10/13 09:19:06;;;;;;;27.90;13.00;;;;;;;17.38;100.00;101493.00;109641;1240;70454;-79
2023/10/13 09:26:55;;;;;;;24.50;12.60;;;;;;;17.42;100.00;101490.70;109976;1240;60653;-75
2023/10/13 09:29:25;;;;;;;30.50;13.60;;;;;;;17.46;100.00;101493.15;109820;1239;73950;-80
2023/10/13 09:32:03;;;;;;;32.00;14.80;;;;;;;17.39;100.00;101496.67;109821;1241;70242;-79
2023/10/13 09:34:33;;;;;;;26.80;13.30;;;;;;;17.40;100.00;101494.23;109594;1240;69760;-76
2023/10/13 09:37:06;;;;;;;35.70;13.80;;;;;;;17.53;100.00;101493.58;109806;1241;71959;-79
2023/10/13 09:39:46;;;;;;;32.50;13.80;;;;;;;17.72;100.00;101490.52;109622;1240;57521;-77
2023/10/13 09:42:18;;;;;;;26.90;13.30;;;;;;;17.92;100.00;101488.81;109694;1239;61033;-77
2023/10/13 09:44:51;;;;;;;30.90;13.60;;;;;;;18.11;100.00;101494.20;109473;1240;74122;-76
2023/10/13 09:47:36;;;;;;;29.00;13.20;;;;;;;18.20;100.00;101492.86;109715;1240;62355;-78
2023/10/13 09:50:13;;;;;;;33.80;13.30;;;;;;;18.14;100.00;101487.55;109588;1240;69848;-79
2023/10/13 09:52:46;;;;;;;31.20;15.30;;;;;;;18.15;100.00;101487.43;109887;1241;74301;-79
2023/10/13 09:55:33;;;;;;;30.30;13.60;;;;;;;18.14;100.00;101484.22;109752;1242;61499;-78
2023/10/13 09:58:11;;;;;;;35.30;13.10;;;;;;;18.15;100.00;101483.24;109767;1240;57197;-77
2023/10/13 10:01:08;;;;;;;29.10;13.50;;;;;;;18.37;100.00;101477.63;109812;1241;62716;-78
2023/10/13 10:04:07;;;;;;;30.80;12.00;;;;;;;18.36;100.00;101477.54;109826;1240;71115;-78
2023/10/13 10:06:43;;;;;;;21.30;9.30;;;;;;;18.50;100.00;101474.55;109781;1240;60334;-78
2023/10/13 10:09:12;;;;;;;12.50;7.10;;;;;;;18.65;100.00;101469.96;109959;1239;63217;-78
2023/10/13 10:12:38;;;;;;;13.30;6.10;;;;;;;18.70;100.00;101465.98;109946;1242;60984;-80
2023/10/13 10:15:33;;;;;;;14.70;6.90;;;;;;;18.84;100.00;101462.17;109690;1240;57973;-78
2023/10/13 10:18:04;;;;;;;12.90;6.60;;;;;;;18.88;100.00;101462.83;109937;1240;63886;-77
2023/10/13 10:20:43;;;;;;;12.30;6.30;;;;;;;18.99;100.00;101461.17;109728;1240;61270;-79
2023/10/13 10:23:28;;;;;;;11.50;5.60;;;;;;;19.00;100.00;101462.54;109781;1239;70446;-79
2023/10/13 10:26:09;;;;;;;14.10;6.60;;;;;;;19.08;100.00;101457.92;109781;1244;62717;-77
2023/10/13 10:28:41;;;;;;;11.80;5.70;;;;;;;19.14;100.00;101454.65;109905;1242;61016;-79
2023/10/13 10:31:16;;;;;;;13.60;5.80;;;;;;;19.11;100.00;101452.19;109778;1240;60730;-79
2023/10/13 10:33:52;;;;;;;12.60;5.70;;;;;;;19.05;100.00;101446.91;109793;1241;74159;-76
2023/10/13 10:36:30;;;;;;;10.20;5.90;;;;;;;18.96;100.00;101447.94;109664;1240;71714;-78
2023/10/13 10:38:59;;;;;;;14.70;7.40;;;;;;;19.00;100.00;101445.13;109752;1241;69162;-78
2023/10/13 10:41:39;;;;;;;16.50;6.90;;;;;;;19.07;100.00;101440.94;109924;1242;63880;-79
2023/10/13 10:47:30;;;;;;;11.50;5.40;;;;;;;19.38;100.00;101435.84;109909;1241;57120;-77
2023/10/13 10:50:07;;;;;;;12.60;7.30;;;;;;;19.50;100.00;101431.34;109947;1241;62921;-77
2023/10/13 10:52:39;;;;;;;14.60;6.80;;;;;;;19.59;100.00;101424.86;109758;1240;61636;-78
2023/10/13 10:55:10;;;;;;;15.60;6.30;;;;;;;19.80;100.00;101421.02;109962;1242;58999;-78
2023/10/13 10:57:43;;;;;;;10.70;5.60;;;;;;;20.19;100.00;101415.66;109949;1242;73683;-77
2023/10/13 11:00:20;;;;;;;12.30;6.70;;;;;;;20.45;100.00;101412.13;109730;1242;60612;-77
2023/10/13 11:02:56;;;;;;;13.90;6.60;;;;;;;20.49;100.00;101411.63;109802;1242;60798;-78
2023/10/13 11:05:32;;;;;;;15.30;6.80;;;;;;;20.55;100.00;101408.73;109955;1240;74363;-77
2023/10/13 11:08:02;;;;;;;13.90;7.60;;;;;;;20.60;100.00;101407.00;109735;1244;62692;-77
2023/10/13 11:10:31;;;;;;;12.60;6.30;;;;;;;20.44;100.00;101406.30;109793;1244;60010;-79
2023/10/13 11:13:21;;;;;;;12.60;5.90;;;;;;;20.25;100.00;101406.50;109883;1242;62331;-77
2023/10/13 11:15:50;;;;;;;13.50;5.70;;;;;;;20.61;100.00;101406.66;109787;1243;57196;-78
2023/10/13 11:18:40;;;;;;;14.20;6.10;;;;;;;20.97;100.00;101407.37;109772;1241;61493;-78
2023/10/13 11:21:15;;;;;;;15.80;6.20;;;;;;;21.23;100.00;101403.77;109946;1241;63383;-77
2023/10/13 11:23:55;;;;;;;11.00;6.20;;;;;;;21.49;100.00;101402.40;109939;1241;62205;-75
2023/10/13 11:26:35;;;;;;;12.50;6.00;;;;;;;21.95;100.00;101399.84;109972;1242;59116;-77
2023/10/13 11:29:10;;;;;;;12.30;6.10;;;;;;;22.39;100.00;101398.35;109911;1241;73786;-77
2023/10/13 11:31:39;;;;;;;14.70;6.20;;;;;;;22.35;100.00;101394.88;109905;1241;62394;-76
2023/10/13 11:34:11;;;;;;;13.00;6.40;;;;;;;22.48;100.00;101389.84;109903;1241;57750;-76
2023/10/13 11:36:43;;;;;;;11.80;5.90;;;;;;;22.83;100.00;101388.36;109905;1241;63234;-77
2023/10/13 11:39:19;;;;;;;11.60;5.90;;;;;;;22.87;100.00;101386.69;109778;1243;61506;-75
2023/10/13 11:41:56;;;;;;;12.80;6.40;;;;;;;22.90;100.00;101380.10;109764;1241;70555;-76
2023/10/13 11:44:26;;;;;;;14.90;6.60;;;;;;;23.43;100.00;101378.83;109914;1242;63595;-79
2023/10/13 11:47:08;;;;;;;13.40;6.20;;;;;;;23.42;100.00;101377.04;109752;1243;60240;-78
2023/10/13 11:49:37;;;;;;;10.10;5.60;;;;;;;23.93;100.00;101377.36;109920;1240;60585;-78
2023/10/13 11:52:15;;;;;;;9.50;5.20;;;;;;;24.02;100.00;101380.02;109913;1241;74551;-77
2023/10/13 11:54:46;;;;;;;12.40;5.70;;;;;;;24.06;100.00;101381.70;109952;1241;61725;-77
2023/10/13 11:57:19;;;;;;;10.80;5.50;;;;;;;23.80;99.93;101379.86;109767;1244;59260;-78
2023/10/13 12:00:16;;;;;;;13.40;5.90;;;;;;;23.92;99.62;101376.77;109714;1244;72379;-77
2023/10/13 12:05:49;;;;;;;13.50;5.50;;;;;;;24.49;98.31;101374.17;109975;1242;61232;-77
2023/10/13 12:08:22;;;;;;;10.10;5.30;;;;;;;24.79;97.61;101373.02;109868;1241;62733;-78
2023/10/13 12:11:00;;;;;;;7.60;4.50;;;;;;;25.06;94.45;101373.34;109986;1242;61580;-75
2023/10/13 12:13:30;;;;;;;11.40;5.70;;;;;;;25.19;92.94;101372.23;109781;1240;61520;-78
2023/10/13 12:16:08;;;;;;;13.20;6.00;;;;;;;25.68;88.99;101370.39;109912;1241;63160;-77
2023/10/13 12:18:37;;;;;;;11.40;5.00;;;;;;;25.25;89.53;101366.91;109864;1242;60515;-76
2023/10/13 12:21:10;;;;;;;11.10;5.30;;;;;;;25.49;89.68;101367.53;109881;1241;61619;-77
2023/10/13 12:23:39;;;;;;;9.20;4.70;;;;;;;25.45;90.04;101372.20;109896;1241;62447;-75
2023/10/13 12:26:18;;;;;;;7.90;5.10;;;;;;;25.48;87.36;101375.06;109873;1241;61517;-78
2023/10/13 12:28:51;;;;;;;8.60;5.10;;;;;;;25.10;89.20;101375.35;109770;1242;69044;-78
2023/10/13 12:31:26;;;;;;;10.40;4.80;;;;;;;25.01;88.45;101374.79;109717;1242;62967;-76
2023/10/13 12:34:06;;;;;;;11.90;5.40;;;;;;;25.52;87.10;101377.91;109781;1242;60166;-76
2023/10/13 12:36:53;;;;;;;7.50;4.70;;;;;;;26.01;86.64;101378.42;109755;1241;60825;-77
2023/10/13 12:50:44;;;;;;;11.00;4.60;;;;;;;24.23;90.24;101384.45;109701;1242;61175;-69
2023/10/13 12:53:13;;;;;;;11.00;4.80;;;;;;;24.58;90.03;101384.83;109717;1242;61386;-69
2023/10/13 12:55:42;;;;;;;12.90;5.20;;;;;;;25.10;87.21;101379.02;109791;1241;64458;-69
2023/10/13 12:58:11;;;;;;;12.60;5.60;;;;;;;25.15;88.22;101377.20;109757;1240;61623;-70
2023/10/13 13:00:48;;;;;;;8.40;5.30;;;;;;;25.91;84.78;101380.16;109742;1240;69867;-70
2023/10/13 13:03:17;;;;;;;8.70;4.90;;;;;;;26.30;81.42;101380.15;109708;1241;74449;-68
2023/10/13 13:05:48;;;;;;;12.10;6.30;;;;;;;26.49;80.79;101381.55;109775;1242;62105;-69
2023/10/13 13:08:22;;;;;;;10.60;6.10;;;;;;;26.71;80.44;101382.61;109872;1241;61461;-69
2023/10/13 13:10:52;;;;;;;13.40;7.30;;;;;;;27.21;80.24;101384.05;109953;1239;64397;-70
2023/10/13 13:13:24;;;;;;;23.80;14.90;;;;;;;27.62;78.52;101381.33;109864;1241;61574;-69
2023/10/13 13:15:54;;;;;;;16.40;6.80;;;;;;;27.78;75.79;101376.73;109867;1239;59156;-69
2023/10/13 13:18:23;;;;;;;12.70;6.70;;;;;;;27.73;75.34;101383.50;109651;1241;62450;-70
2023/10/13 13:20:55;;;;;;;13.00;7.30;;;;;;;28.06;74.71;101381.63;109705;1242;60883;-70
2023/10/13 13:23:26;;;;;;;11.40;6.30;;;;;;;28.09;74.05;101383.56;109740;1241;57580;-70
2023/10/13 13:25:56;;;;;;;16.40;7.30;;;;;;;28.51;72.38;101381.95;109701;1241;62543;-70
2023/10/13 13:28:28;;;;;;;13.30;7.30;;;;;;;27.52;73.83;101378.33;109882;1241;61677;-71
2023/10/13 13:30:58;;;;;;;;;;;;;;;26.98;76.06;101379.75;109443;1239;410497;-70
2023/10/13 13:33:33;;;;;;;13.20;6.60;;;;;;;27.56;74.72;101376.19;109862;1239;62568;-70
2023/10/13 13:36:04;;;;;;;36.20;27.50;;;;;;;27.72;73.04;101373.75;109902;1241;57558;-70
2023/10/13 13:38:33;;;;;;;10.60;6.50;;;;;;;27.92;72.06;101376.54;109904;1241;57187;-70
2023/10/13 13:41:03;;;;;;;14.20;7.20;;;;;;;27.29;74.95;101377.98;109753;1240;63405;-68
2023/10/13 13:43:38;;;;;;;15.10;7.80;;;;;;;26.96;76.05;101380.47;110010;1240;60768;-70
2023/10/13 13:46:10;;;;;;;16.70;8.00;;;;;;;27.83;73.92;101375.56;109911;1241;60714;-69
2023/10/13 13:48:41;;;;;;;;;;;;;;;27.89;71.28;101368.80;109742;1241;65481;-68
2023/10/13 13:51:14;;;;;;;14.50;7.00;;;;;;;26.34;78.31;101375.77;109788;1242;57674;-69
2023/10/13 13:53:50;;;;;;;14.30;6.60;;;;;;;27.38;74.28;101379.46;109902;1241;57621;-68
2023/10/13 13:56:19;;;;;;;14.00;6.80;;;;;;;27.42;73.03;101377.33;109857;1240;74127;-69
2023/10/13 13:58:50;;;;;;;15.00;6.90;;;;;;;26.78;75.37;101371.88;109810;1239;61908;-69
2023/10/13 14:01:19;;;;;;;11.50;6.50;;;;;;;26.63;75.88;101370.63;109733;1241;69493;-68
2023/10/13 14:03:50;;;;;;;12.90;6.70;;;;;;;26.59;76.63;101370.25;109788;1240;63635;-70
2023/10/13 14:06:26;;;;;;;13.70;6.70;;;;;;;27.16;74.16;101367.20;109756;1242;57308;-69
2023/10/13 14:08:59;;;;;;;13.30;6.90;;;;;;;27.56;71.91;101366.70;109793;1239;60672;-68
2023/10/13 14:14:11;;;;;;;13.20;6.60;;;;;;;27.83;70.05;101365.92;109814;1240;72256;-68
2023/10/13 14:16:49;;;;;;;13.90;6.90;;;;;;;27.53;70.60;101363.40;109981;1239;70754;-69
2023/10/13 14:19:27;;;;;;;11.50;7.10;;;;;;;27.46;71.56;101365.59;109970;1241;62840;-69
2023/10/13 14:21:56;;;;;;;15.60;7.20;;;;;;;27.34;71.76;101362.33;109869;1241;57160;-69
2023/10/13 14:24:33;;;;;;;12.00;7.30;;;;;;;27.14;72.64;101365.09;109586;1242;57224;-69
2023/10/13 14:27:11;;;;;;;14.60;7.10;;;;;;;26.19;77.33;101367.38;109814;1241;65396;-68
2023/10/13 14:29:40;;;;;;;12.90;7.10;;;;;;;26.31;76.68;101364.96;109695;1240;61352;-68
2023/10/13 14:32:13;;;;;;;15.90;7.00;;;;;;;26.56;75.71;101364.17;109806;1240;68221;-68
2023/10/13 14:34:53;;;;;;;15.20;9.70;;;;;;;26.23;77.38;101365.97;109825;1240;63773;-68
2023/10/13 14:37:26;;;;;;;22.50;14.30;;;;;;;26.16;76.65;101365.34;109759;1242;61064;-67
2023/10/13 14:39:59;;;;;;;15.30;7.80;;;;;;;25.48;79.89;101362.88;110025;1240;57705;-68